Time;durP1;ratioP1;P1;durP2;ratioP2;P2;SDS_P1;SDS_P2;PMS_P1;PMS_P2;Temp;Humidity;BMP_temperature;BMP_pressure;BME280_temperature;BME280_humidity;BME280_pressure;Samples;Min_cycle;Max_cycle;Signal;HPM_P1;HPM_P2
2022/06/07 00:02:14;;;;;;;6.30;3.50;;;;;;;;;;5068088;28;20032;-60
2022/06/07 00:04:40;;;;;;;6.20;4.00;;;;;;;;;;5072645;28;20440;-60
2022/06/07 00:07:06;;;;;;;4.43;3.60;;;;;;;;;;5069816;28;20028;-59
2022/06/07 00:09:32;;;;;;;5.95;3.30;;;;;;;;;;5070328;28;20029;-59
2022/06/07 00:11:58;;;;;;;4.50;3.55;;;;;;;;;;5063420;28;20031;-59
2022/06/07 00:14:24;;;;;;;7.18;3.40;;;;;;;;;;5064416;28;20074;-60
2022/06/07 00:16:51;;;;;;;6.65;3.40;;;;;;;;;;5064564;28;20036;-59
2022/06/07 00:19:16;;;;;;;7.40;3.13;;;;;;;;;;5070291;28;20028;-59
2022/06/07 00:21:42;;;;;;;3.90;3.50;;;;;;;;;;5063177;28;20032;-60
2022/06/07 00:24:08;;;;;;;5.65;3.65;;;;;;;;;;5062648;28;20056;-59
2022/06/07 00:26:37;;;;;;;5.55;3.72;;;;;;;;;;5063444;28;20476;-59
2022/06/07 00:29:03;;;;;;;5.75;3.58;;;;;;;;;;5070293;28;20070;-60
2022/06/07 00:31:28;;;;;;;7.03;3.88;;;;;;;;;;5065926;28;20027;-61
2022/06/07 00:33:54;;;;;;;4.40;3.30;;;;;;;;;;5069938;28;20040;-60
2022/06/07 00:36:19;;;;;;;6.43;3.03;;;;;;;;;;5065967;28;20028;-60
2022/06/07 00:38:45;;;;;;;3.80;3.20;;;;;;;;;;5073551;28;20032;-61
2022/06/07 00:41:12;;;;;;;4.75;3.30;;;;;;;;;;5074322;28;20037;-60
2022/06/07 00:43:38;;;;;;;7.07;3.50;;;;;;;;;;5072164;28;20066;-60
2022/06/07 00:46:10;;;;;;;5.18;3.53;;;;;;;;;;5068130;28;20028;-60
2022/06/07 00:48:37;;;;;;;4.43;3.20;;;;;;;;;;5071673;28;20028;-60
2022/06/07 00:51:13;;;;;;;5.32;3.63;;;;;;;;;;5072032;28;20028;-60
2022/06/07 00:53:38;;;;;;;5.78;3.60;;;;;;;;;;5071199;28;20111;-61
2022/06/07 00:56:05;;;;;;;4.82;3.55;;;;;;;;;;5067546;28;20568;-60
2022/06/07 00:58:32;;;;;;;5.07;3.40;;;;;;;;;;5070185;28;20040;-59
2022/06/07 01:00:59;;;;;;;5.10;3.47;;;;;;;;;;5076313;28;20123;-59
2022/06/07 01:03:25;;;;;;;12.27;3.70;;;;;;;;;;5064079;28;20036;-59
2022/06/07 01:05:51;;;;;;;4.68;3.53;;;;;;;;;;5065875;28;20044;-59
2022/06/07 01:11:02;;;;;;;5.78;3.00;;;;;;;;;;5064450;28;20039;-59
2022/06/07 01:13:32;;;;;;;5.38;2.72;;;;;;;;;;5061880;28;20108;-59
2022/06/07 01:16:06;;;;;;;6.03;3.97;;;;;;;;;;5063980;28;20127;-60
2022/06/07 01:18:33;;;;;;;4.18;2.90;;;;;;;;;;5065933;28;20380;-59
2022/06/07 01:21:17;;;;;;;4.20;3.55;;;;;;;;;;5062650;28;20086;-59
2022/06/07 01:23:44;;;;;;;2.88;2.58;;;;;;;;;;5067995;28;20403;-58
2022/06/07 01:26:11;;;;;;;3.28;2.42;;;;;;;;;;5064062;28;20052;-60
2022/06/07 01:28:36;;;;;;;2.92;2.60;;;;;;;;;;5065509;28;20038;-59
2022/06/07 01:31:02;;;;;;;4.75;3.28;;;;;;;;;;5063472;28;20490;-58
2022/06/07 01:33:28;;;;;;;3.75;3.30;;;;;;;;;;5065934;28;20490;-59
2022/06/07 01:36:08;;;;;;;3.60;3.15;;;;;;;;;;5072399;28;20087;-59
2022/06/07 01:38:36;;;;;;;2.72;2.50;;;;;;;;;;5070221;28;20120;-59
2022/06/07 01:43:46;;;;;;;3.50;2.60;;;;;;;;;;5070200;28;20074;-59
2022/06/07 01:46:12;;;;;;;3.58;2.70;;;;;;;;;;5072904;28;20020;-59
2022/06/07 01:48:38;;;;;;;5.57;2.67;;;;;;;;;;5069783;28;20345;-59
2022/06/07 01:51:06;;;;;;;4.97;2.40;;;;;;;;;;5067156;28;20457;-60
2022/06/07 01:53:31;;;;;;;4.60;2.75;;;;;;;;;;5070442;28;20082;-60
2022/06/07 01:56:10;;;;;;;4.70;2.15;;;;;;;;;;5064057;28;20028;-58
2022/06/07 01:58:37;;;;;;;4.35;2.25;;;;;;;;;;5067983;28;20108;-59
2022/06/07 02:01:02;;;;;;;4.38;2.17;;;;;;;;;;5067813;28;20072;-58
2022/06/07 02:03:28;;;;;;;2.42;2.22;;;;;;;;;;5068936;28;20047;-60
2022/06/07 02:06:02;;;;;;;3.00;2.70;;;;;;;;;;5064194;28;20432;-59
2022/06/07 02:08:28;;;;;;;4.30;2.67;;;;;;;;;;5065025;28;20067;-60
2022/06/07 02:10:54;;;;;;;3.42;2.60;;;;;;;;;;5064328;28;20036;-59
2022/06/07 02:13:20;;;;;;;4.75;2.40;;;;;;;;;;5067955;28;20033;-58
2022/06/07 02:15:47;;;;;;;4.97;2.60;;;;;;;;;;5061444;28;20520;-59
2022/06/07 02:18:13;;;;;;;3.55;2.30;;;;;;;;;;5061280;28;20029;-58
2022/06/07 02:20:39;;;;;;;4.75;2.38;;;;;;;;;;5061766;28;20116;-58
2022/06/07 02:23:06;;;;;;;3.63;2.30;;;;;;;;;;5065295;28;20124;-58
2022/06/07 02:25:41;;;;;;;3.08;2.22;;;;;;;;;;5066120;28;20028;-59
2022/06/07 02:28:07;;;;;;;3.40;2.17;;;;;;;;;;5067787;28;20307;-58
2022/06/07 02:30:33;;;;;;;4.32;2.40;;;;;;;;;;5065946;28;20068;-58
2022/06/07 02:32:58;;;;;;;2.47;2.08;;;;;;;;;;5064214;28;20059;-58
2022/06/07 02:35:24;;;;;;;3.20;2.80;;;;;;;;;;5074525;28;20032;-58
2022/06/07 02:37:49;;;;;;;3.42;2.20;;;;;;;;;;5068706;28;20024;-59
2022/06/07 02:40:15;;;;;;;6.28;2.70;;;;;;;;;;5071483;28;20032;-59
2022/06/07 02:42:41;;;;;;;4.95;2.15;;;;;;;;;;5067470;28;20033;-59
2022/06/07 02:45:06;;;;;;;2.55;2.30;;;;;;;;;;5072984;28;20108;-58
2022/06/07 02:47:32;;;;;;;4.32;2.20;;;;;;;;;;5069735;28;20586;-58
2022/06/07 02:49:57;;;;;;;3.47;2.42;;;;;;;;;;5068339;28;20028;-58
2022/06/07 02:52:23;;;;;;;7.60;2.83;;;;;;;;;;5068745;28;20024;-59
2022/06/07 02:54:48;;;;;;;3.65;2.30;;;;;;;;;;5071027;28;20399;-59
2022/06/07 02:57:15;;;;;;;2.92;2.05;;;;;;;;;;5068850;28;20088;-58
2022/06/07 02:59:40;;;;;;;3.53;2.10;;;;;;;;;;5064241;28;20074;-59
2022/06/07 03:02:06;;;;;;;5.75;2.60;;;;;;;;;;5067084;28;20028;-59
2022/06/07 03:04:33;;;;;;;4.13;2.38;;;;;;;;;;5070992;28;20033;-59
2022/06/07 03:06:59;;;;;;;5.50;2.55;;;;;;;;;;5062703;28;20127;-59
2022/06/07 03:09:25;;;;;;;4.50;2.20;;;;;;;;;;5060789;28;20115;-59
2022/06/07 03:11:50;;;;;;;2.85;2.55;;;;;;;;;;5062037;28;20402;-58
2022/06/07 03:14:16;;;;;;;3.60;3.10;;;;;;;;;;5067411;28;20035;-59
2022/06/07 03:16:42;;;;;;;4.22;3.03;;;;;;;;;;5066791;28;20031;-59
2022/06/07 03:19:07;;;;;;;3.30;2.70;;;;;;;;;;5066791;28;20039;-59
2022/06/07 03:21:33;;;;;;;2.88;2.60;;;;;;;;;;5065976;28;20494;-58
2022/06/07 03:23:59;;;;;;;2.90;2.30;;;;;;;;;;5069154;28;20115;-59
2022/06/07 03:26:24;;;;;;;3.50;2.70;;;;;;;;;;5072469;28;20028;-61
2022/06/07 03:28:49;;;;;;;3.60;2.22;;;;;;;;;;5068893;28;20519;-59
2022/06/07 03:31:17;;;;;;;5.78;2.75;;;;;;;;;;5067809;28;20024;-58
2022/06/07 03:33:44;;;;;;;3.85;2.70;;;;;;;;;;5075470;28;20027;-58
2022/06/07 03:36:16;;;;;;;4.65;2.78;;;;;;;;;;5073668;28;20084;-59
2022/06/07 03:38:42;;;;;;;5.00;2.67;;;;;;;;;;5073969;28;20025;-59
2022/06/07 03:41:08;;;;;;;3.75;2.78;;;;;;;;;;5073462;28;20558;-59
2022/06/07 03:43:34;;;;;;;6.72;2.85;;;;;;;;;;5073602;28;20058;-59
2022/06/07 03:46:07;;;;;;;5.97;3.63;;;;;;;;;;5075746;28;20032;-59
2022/06/07 03:48:33;;;;;;;4.38;3.20;;;;;;;;;;5073067;28;20035;-59
2022/06/07 03:50:58;;;;;;;4.30;2.95;;;;;;;;;;5071602;28;20048;-60
2022/06/07 03:53:24;;;;;;;5.75;2.80;;;;;;;;;;5067828;28;20113;-59
2022/06/07 03:55:53;;;;;;;4.80;3.03;;;;;;;;;;5073485;28;20085;-59
2022/06/07 03:58:18;;;;;;;4.03;2.45;;;;;;;;;;5069995;28;20118;-59
2022/06/07 04:00:44;;;;;;;4.97;3.15;;;;;;;;;;5069351;28;20191;-59
2022/06/07 04:03:10;;;;;;;12.68;6.55;;;;;;;;;;5074077;28;20059;-59
2022/06/07 04:05:46;;;;;;;7.10;4.05;;;;;;;;;;5069568;28;20190;-59
2022/06/07 04:08:15;;;;;;;5.78;3.45;;;;;;;;;;5063769;28;20028;-59
2022/06/07 04:11:02;;;;;;;4.32;3.25;;;;;;;;;;5065957;28;20020;-59
2022/06/07 04:13:30;;;;;;;4.43;3.00;;;;;;;;;;5067621;28;20025;-59
2022/06/07 04:15:55;;;;;;;4.57;3.47;;;;;;;;;;5064693;28;20539;-59
2022/06/07 04:18:21;;;;;;;11.95;5.40;;;;;;;;;;5067362;28;20116;-59
2022/06/07 04:20:47;;;;;;;7.07;4.53;;;;;;;;;;5064423;28;20227;-59
2022/06/07 04:23:19;;;;;;;9.60;4.50;;;;;;;;;;5067609;28;20104;-60
2022/06/07 04:25:45;;;;;;;6.50;4.35;;;;;;;;;;5065244;28;20123;-59
2022/06/07 04:28:12;;;;;;;5.18;3.40;;;;;;;;;;5070287;28;20070;-59
2022/06/07 04:30:38;;;;;;;5.18;3.72;;;;;;;;;;5065837;28;20097;-59
2022/06/07 04:33:03;;;;;;;7.25;3.88;;;;;;;;;;5073736;28;20048;-59
2022/06/07 04:35:29;;;;;;;5.13;3.08;;;;;;;;;;5074913;28;20089;-59
2022/06/07 04:37:55;;;;;;;5.82;3.30;;;;;;;;;;5073829;28;20031;-59
2022/06/07 04:40:21;;;;;;;3.78;2.90;;;;;;;;;;5072944;28;20027;-60
2022/06/07 04:42:47;;;;;;;5.93;3.00;;;;;;;;;;5071625;28;20028;-59
2022/06/07 04:45:15;;;;;;;4.15;2.95;;;;;;;;;;5075058;28;20051;-59
2022/06/07 04:47:41;;;;;;;5.68;3.22;;;;;;;;;;5070925;28;20025;-58
2022/06/07 04:50:08;;;;;;;6.28;3.35;;;;;;;;;;5071095;28;20107;-59
2022/06/07 04:52:34;;;;;;;4.47;3.00;;;;;;;;;;5070216;28;20503;-59
2022/06/07 04:54:59;;;;;;;3.35;2.78;;;;;;;;;;5074503;28;20034;-58
2022/06/07 04:57:25;;;;;;;4.28;3.30;;;;;;;;;;5066477;28;20369;-59
2022/06/07 04:59:50;;;;;;;4.85;3.10;;;;;;;;;;5068312;28;20063;-59
2022/06/07 05:02:16;;;;;;;5.90;3.00;;;;;;;;;;5070550;28;20028;-58
2022/06/07 05:04:41;;;;;;;4.82;3.20;;;;;;;;;;5070684;28;20368;-59
2022/06/07 05:07:07;;;;;;;3.67;3.28;;;;;;;;;;5062486;28;20021;-59
2022/06/07 05:09:33;;;;;;;5.57;3.75;;;;;;;;;;5063296;28;20029;-60
2022/06/07 05:11:58;;;;;;;3.83;3.00;;;;;;;;;;5063168;28;20032;-59
2022/06/07 05:14:24;;;;;;;5.03;3.40;;;;;;;;;;5066659;28;20028;-59
2022/06/07 05:16:50;;;;;;;3.97;3.45;;;;;;;;;;5061825;28;20020;-61
2022/06/07 05:19:17;;;;;;;7.70;3.53;;;;;;;;;;5067701;28;20029;-60
2022/06/07 05:21:42;;;;;;;5.28;3.60;;;;;;;;;;5064225;28;20531;-60
2022/06/07 05:24:08;;;;;;;4.38;3.47;;;;;;;;;;5065155;28;20127;-60
2022/06/07 05:26:43;;;;;;;4.35;3.20;;;;;;;;;;5067142;28;20475;-60
2022/06/07 05:29:24;;;;;;;4.18;3.05;;;;;;;;;;5066955;28;20078;-59
2022/06/07 05:31:49;;;;;;;6.35;3.40;;;;;;;;;;5072143;28;20028;-60
2022/06/07 05:34:15;;;;;;;7.50;3.53;;;;;;;;;;5075170;28;20391;-60
2022/06/07 05:36:41;;;;;;;6.00;3.22;;;;;;;;;;5071190;28;20083;-60
2022/06/07 05:39:07;;;;;;;4.10;3.13;;;;;;;;;;5071769;28;20020;-60
2022/06/07 05:41:33;;;;;;;4.10;2.92;;;;;;;;;;5063754;28;20078;-60
2022/06/07 05:43:59;;;;;;;4.50;3.40;;;;;;;;;;5069243;28;20549;-60
2022/06/07 05:46:25;;;;;;;4.30;3.30;;;;;;;;;;5069697;28;20024;-60
2022/06/07 05:48:50;;;;;;;3.42;2.97;;;;;;;;;;5070035;28;20502;-59
2022/06/07 05:51:16;;;;;;;4.22;2.97;;;;;;;;;;5070345;28;20028;-60
2022/06/07 05:53:42;;;;;;;6.60;3.15;;;;;;;;;;5070741;28;20396;-59
2022/06/07 05:56:13;;;;;;;4.60;3.15;;;;;;;;;;5070704;28;20031;-60
2022/06/07 05:58:39;;;;;;;3.92;3.10;;;;;;;;;;5068465;28;20471;-59
2022/06/07 06:01:07;;;;;;;5.03;3.00;;;;;;;;;;5066713;28;20116;-60
2022/06/07 06:03:33;;;;;;;4.00;2.67;;;;;;;;;;5068286;28;20058;-59
2022/06/07 06:05:58;;;;;;;3.67;3.05;;;;;;;;;;5062685;28;20040;-60
2022/06/07 06:11:14;;;;;;;4.57;2.95;;;;;;;;;;5058624;28;20035;-60
2022/06/07 06:13:39;;;;;;;5.75;3.17;;;;;;;;;;5064378;28;20028;-60
2022/06/07 06:16:09;;;;;;;3.92;2.92;;;;;;;;;;5064874;28;20078;-60
2022/06/07 06:18:34;;;;;;;3.10;2.80;;;;;;;;;;5062207;28;20036;-60
2022/06/07 06:21:00;;;;;;;4.90;2.85;;;;;;;;;;5064944;28;20089;-60
2022/06/07 06:23:26;;;;;;;3.08;2.80;;;;;;;;;;5067366;28;20020;-60
2022/06/07 06:25:51;;;;;;;4.20;2.97;;;;;;;;;;5065691;28;20237;-60
2022/06/07 06:28:17;;;;;;;5.85;3.17;;;;;;;;;;5067581;28;20020;-60
2022/06/07 06:30:47;;;;;;;6.28;3.78;;;;;;;;;;5071327;28;20063;-60
2022/06/07 06:33:13;;;;;;;3.63;3.25;;;;;;;;;;5074371;28;20025;-60
2022/06/07 06:35:39;;;;;;;6.00;3.70;;;;;;;;;;5067270;28;20381;-59
2022/06/07 06:38:05;;;;;;;4.90;3.10;;;;;;;;;;5071184;28;20067;-60
2022/06/07 06:40:30;;;;;;;4.97;2.55;;;;;;;;;;5066149;28;20472;-60
2022/06/07 06:42:56;;;;;;;5.78;2.95;;;;;;;;;;5070642;28;20392;-59
2022/06/07 06:45:21;;;;;;;3.40;2.58;;;;;;;;;;5069278;28;20024;-60
2022/06/07 06:47:47;;;;;;;5.13;3.58;;;;;;;;;;5071967;28;20037;-60
2022/06/07 06:50:13;;;;;;;9.43;5.30;;;;;;;;;;5072672;28;20310;-60
2022/06/07 06:52:39;;;;;;;4.70;3.13;;;;;;;;;;5071376;28;20041;-60
2022/06/07 06:55:06;;;;;;;4.32;3.05;;;;;;;;;;5074789;28;20453;-60
2022/06/07 06:57:31;;;;;;;3.70;2.90;;;;;;;;;;5067803;28;20033;-59
2022/06/07 06:59:57;;;;;;;4.25;3.00;;;;;;;;;;5069057;28;20024;-60
2022/06/07 07:02:22;;;;;;;10.68;3.20;;;;;;;;;;5070766;28;20036;-61
2022/06/07 07:04:48;;;;;;;7.45;3.60;;;;;;;;;;5067836;28;20035;-60
2022/06/07 07:07:13;;;;;;;6.22;4.25;;;;;;;;;;5065152;28;20079;-60
2022/06/07 07:09:38;;;;;;;5.53;3.38;;;;;;;;;;5068762;28;20476;-60
2022/06/07 07:12:05;;;;;;;4.40;2.35;;;;;;;;;;5065330;28;20035;-60
2022/06/07 07:14:30;;;;;;;6.53;2.97;;;;;;;;;;5069785;28;20032;-60
2022/06/07 07:16:56;;;;;;;4.07;2.75;;;;;;;;;;5065212;28;20075;-60
2022/06/07 07:19:22;;;;;;;3.95;2.75;;;;;;;;;;5065471;28;20025;-61
2022/06/07 07:21:49;;;;;;;3.20;2.80;;;;;;;;;;5067633;28;20341;-60
2022/06/07 07:24:21;;;;;;;2.85;2.65;;;;;;;;;;5069127;28;20024;-60
2022/06/07 07:26:48;;;;;;;2.83;2.50;;;;;;;;;;5070069;28;20028;-61
2022/06/07 07:29:17;;;;;;;4.30;2.72;;;;;;;;;;5069226;28;20503;-60
2022/06/07 07:31:43;;;;;;;5.03;2.67;;;;;;;;;;5071259;28;20086;-60
2022/06/07 07:34:11;;;;;;;4.57;2.40;;;;;;;;;;5076592;28;20036;-60
2022/06/07 07:36:42;;;;;;;6.07;2.72;;;;;;;;;;5073096;28;20043;-60
2022/06/07 07:39:08;;;;;;;5.28;2.78;;;;;;;;;;5075042;28;20029;-60
2022/06/07 07:41:36;;;;;;;6.53;2.60;;;;;;;;;;5073261;28;20070;-60
2022/06/07 07:44:05;;;;;;;3.47;2.80;;;;;;;;;;5074153;28;20024;-60
2022/06/07 07:46:34;;;;;;;5.10;2.95;;;;;;;;;;5071360;28;20029;-59
2022/06/07 07:49:00;;;;;;;5.35;3.00;;;;;;;;;;5072829;28;20368;-60
2022/06/07 07:51:29;;;;;;;4.05;2.92;;;;;;;;;;5066374;28;20471;-59
2022/06/07 07:53:57;;;;;;;5.82;3.15;;;;;;;;;;5071013;28;20506;-60
2022/06/07 07:56:23;;;;;;;2.63;2.40;;;;;;;;;;5068146;28;20052;-60
2022/06/07 07:58:49;;;;;;;9.10;2.72;;;;;;;;;;5069596;28;20059;-61
2022/06/07 08:01:17;;;;;;;4.85;2.75;;;;;;;;;;5067877;28;20036;-60
2022/06/07 08:03:43;;;;;;;4.45;3.13;;;;;;;;;;5065263;28;20062;-60
2022/06/07 08:06:15;;;;;;;4.20;3.10;;;;;;;;;;5063720;28;20032;-60
2022/06/07 08:08:41;;;;;;;7.43;2.72;;;;;;;;;;5070681;28;20028;-59
2022/06/07 08:11:07;;;;;;;3.15;2.65;;;;;;;;;;5060546;28;20051;-60
2022/06/07 08:13:32;;;;;;;3.03;2.67;;;;;;;;;;5072840;28;20028;-60
2022/06/07 08:15:58;;;;;;;2.97;2.38;;;;;;;;;;5064510;28;20024;-60
2022/06/07 08:18:25;;;;;;;2.65;2.33;;;;;;;;;;5067659;28;20063;-60
2022/06/07 08:21:06;;;;;;;4.15;2.97;;;;;;;;;;5064125;28;20028;-60
2022/06/07 08:23:32;;;;;;;9.90;2.80;;;;;;;;;;5066963;28;20026;-60
2022/06/07 08:25:59;;;;;;;3.55;2.85;;;;;;;;;;5065405;28;20428;-60
2022/06/07 08:28:25;;;;;;;3.47;2.78;;;;;;;;;;5073325;28;20352;-60
2022/06/07 08:30:51;;;;;;;4.18;2.60;;;;;;;;;;5072479;28;20028;-61
2022/06/07 08:39:06;;;;;;;4.28;2.60;;;;;;;;;;5058145;28;20526;-60
2022/06/07 08:41:37;;;;;;;4.13;2.53;;;;;;;;;;5069363;28;20040;-60
2022/06/07 08:44:08;;;;;;;2.88;2.60;;;;;;;;;;5066847;28;20039;-60
2022/06/07 08:46:36;;;;;;;3.20;2.50;;;;;;;;;;5070080;28;20024;-61
2022/06/07 08:49:02;;;;;;;6.55;2.38;;;;;;;;;;5034038;28;1143412;-59
2022/06/07 08:51:35;;;;;;;6.20;2.38;;;;;;;;;;5063903;28;20017;-61
2022/06/07 08:54:06;;;;;;;4.03;2.40;;;;;;;;;;5067268;28;20410;-60
2022/06/07 08:56:34;;;;;;;3.60;2.65;;;;;;;;;;5068193;28;20028;-60
2022/06/07 08:59:11;;;;;;;5.90;2.70;;;;;;;;;;5073667;28;20028;-60
2022/06/07 09:01:47;;;;;;;3.63;2.80;;;;;;;;;;5062262;28;20483;-60
2022/06/07 09:04:21;;;;;;;3.80;2.55;;;;;;;;;;5065704;28;20036;-60
2022/06/07 09:06:51;;;;;;;4.45;3.15;;;;;;;;;;5069371;28;20061;-60
2022/06/07 09:09:21;;;;;;;3.40;3.03;;;;;;;;;;5064351;28;20025;-60
2022/06/07 09:12:10;;;;;;;5.13;2.72;;;;;;;;;;5063982;28;20379;-60
2022/06/07 09:14:42;;;;;;;4.32;2.65;;;;;;;;;;5066925;28;20070;-61
2022/06/07 09:17:56;;;;;;;3.67;2.25;;;;;;;;;;5062794;28;20043;-60
2022/06/07 09:20:27;;;;;;;2.88;2.47;;;;;;;;;;5060478;28;20530;-60
2022/06/07 09:23:21;;;;;;;4.00;2.40;;;;;;;;;;5060076;28;20043;-61
2022/06/07 09:25:51;;;;;;;2.67;2.38;;;;;;;;;;5053104;28;20093;-60
2022/06/07 09:28:23;;;;;;;;;;;;;;;;;;5073752;28;20418;-60
2022/06/07 09:31:05;;;;;;;3.00;2.30;;;;;;;;;;5067777;28;19920;-60
2022/06/07 09:33:34;;;;;;;3.50;2.50;;;;;;;;;;5069528;28;20036;-60
2022/06/07 09:36:15;;;;;;;3.03;2.22;;;;;;;;;;5072720;28;20051;-61
2022/06/07 09:38:46;;;;;;;3.65;2.33;;;;;;;;;;5070651;28;20041;-61
2022/06/07 09:44:21;;;;;;;3.15;2.17;;;;;;;;;;5073269;28;20039;-60
2022/06/07 09:47:03;;;;;;;4.05;2.25;;;;;;;;;;5069016;28;20475;-60
2022/06/07 09:49:40;;;;;;;2.88;2.10;;;;;;;;;;5072952;28;20452;-60
2022/06/07 09:52:29;;;;;;;2.97;2.17;;;;;;;;;;5068143;28;20680;-60
2022/06/07 09:55:01;;;;;;;3.88;2.50;;;;;;;;;;5059107;28;20028;-60
2022/06/07 09:58:00;;;;;;;4.00;2.22;;;;;;;;;;5068599;28;20561;-60
2022/06/07 10:00:53;;;;;;;5.35;2.33;;;;;;;;;;5064249;28;20143;-60
2022/06/07 10:03:42;;;;;;;3.10;2.33;;;;;;;;;;5064564;28;20107;-60
2022/06/07 10:06:29;;;;;;;3.13;2.13;;;;;;;;;;5059950;28;20029;-61
2022/06/07 10:09:27;;;;;;;3.38;2.05;;;;;;;;;;5059366;28;20036;-60
2022/06/07 10:11:53;;;;;;;3.10;2.08;;;;;;;;;;5046578;28;20119;-60
2022/06/07 10:14:50;;;;;;;3.00;2.25;;;;;;;;;;5061672;28;20111;-60
2022/06/07 10:17:33;;;;;;;2.03;1.88;;;;;;;;;;5063842;28;20421;-60
2022/06/07 10:20:06;;;;;;;2.05;1.85;;;;;;;;;;5064295;28;20028;-60
2022/06/07 10:22:34;;;;;;;2.17;1.70;;;;;;;;;;5059888;28;20040;-61
2022/06/07 10:25:30;;;;;;;2.58;1.63;;;;;;;;;;5064114;28;20483;-61
2022/06/07 10:28:15;;;;;;;3.28;1.67;;;;;;;;;;5063377;28;20055;-60
2022/06/07 10:30:45;;;;;;;2.22;1.90;;;;;;;;;;5069125;28;20108;-60
2022/06/07 10:33:25;;;;;;;3.33;2.75;;;;;;;;;;5074228;28;20109;-60
2022/06/07 10:36:17;;;;;;;2.47;1.55;;;;;;;;;;5070375;28;20485;-60
2022/06/07 10:38:54;;;;;;;1.70;1.60;;;;;;;;;;5067974;28;20040;-61
2022/06/07 10:41:48;;;;;;;3.10;1.50;;;;;;;;;;5066051;28;20031;-60
2022/06/07 10:44:37;;;;;;;1.60;1.45;;;;;;;;;;5064499;28;20024;-61
2022/06/07 10:47:28;;;;;;;1.90;1.70;;;;;;;;;;5074433;28;20024;-61
2022/06/07 10:50:16;;;;;;;2.60;1.83;;;;;;;;;;5068098;28;20396;-60
2022/06/07 10:52:55;;;;;;;2.60;1.98;;;;;;;;;;5071339;28;20029;-61
2022/06/07 10:56:12;;;;;;;1.75;1.65;;;;;;;;;;5060854;28;20063;-61
2022/06/07 10:58:41;;;;;;;2.30;1.73;;;;;;;;;;5058763;28;20040;-60
2022/06/07 11:01:14;;;;;;;2.27;1.90;;;;;;;;;;5060861;28;20187;-60
2022/06/07 11:04:04;;;;;;;4.18;1.58;;;;;;;;;;5062879;28;20021;-61
2022/06/07 11:09:44;;;;;;;2.88;1.90;;;;;;;;;;5062167;28;20051;-61
2022/06/07 11:12:17;;;;;;;2.28;1.80;;;;;;;;;;5061425;28;20029;-61
2022/06/07 11:15:03;;;;;;;2.30;1.70;;;;;;;;;;5064621;28;20392;-60
2022/06/07 11:17:49;;;;;;;2.10;1.88;;;;;;;;;;5065110;28;20414;-61
2022/06/07 11:20:25;;;;;;;2.88;1.80;;;;;;;;;;5063005;28;20035;-60
2022/06/07 11:23:05;;;;;;;2.17;1.70;;;;;;;;;;5059597;28;20028;-60
2022/06/07 11:25:32;;;;;;;5.72;2.33;;;;;;;;;;5070610;28;20479;-60
2022/06/07 11:28:10;;;;;;;2.63;1.67;;;;;;;;;;5071530;28;20040;-60
2022/06/07 11:30:37;;;;;;;3.22;1.60;;;;;;;;;;5071009;28;20390;-59
2022/06/07 11:33:06;;;;;;;1.73;1.60;;;;;;;;;;5071027;28;20403;-60
2022/06/07 11:35:44;;;;;;;;;;;;;;;;;;5072010;28;20454;-60
2022/06/07 11:38:18;;;;;;;2.72;1.75;;;;;;;;;;5077486;28;19911;-59
2022/06/07 11:40:47;;;;;;;1.80;1.67;;;;;;;;;;5071316;28;20052;-59
2022/06/07 11:43:31;;;;;;;;;;;;;;;;;;5073295;28;20074;-60
2022/06/07 11:45:59;;;;;;;2.17;1.75;;;;;;;;;;5075109;28;19955;-60
2022/06/07 11:48:35;;;;;;;2.22;1.50;;;;;;;;;;5070200;28;20033;-60
2022/06/07 11:51:17;;;;;;;3.63;1.52;;;;;;;;;;5064191;28;20090;-60
2022/06/07 11:53:57;;;;;;;6.35;3.70;;;;;;;;;;5072122;28;20399;-60
2022/06/07 11:56:45;;;;;;;7.35;2.08;;;;;;;;;;5067571;28;20029;-59
2022/06/07 11:59:17;;;;;;;1.75;1.50;;;;;;;;;;5064597;28;20079;-59
2022/06/07 12:01:46;;;;;;;2.42;1.70;;;;;;;;;;5070563;28;20273;-59
2022/06/07 12:04:29;;;;;;;2.03;1.67;;;;;;;;;;5064792;28;20056;-59
2022/06/07 12:07:05;;;;;;;4.88;1.90;;;;;;;;;;5066568;28;20047;-60
2022/06/07 12:09:31;;;;;;;2.00;1.40;;;;;;;;;;5072885;28;20042;-60
2022/06/07 12:11:56;;;;;;;2.53;1.92;;;;;;;;;;5063425;28;20399;-60
2022/06/07 12:14:29;;;;;;;1.70;1.50;;;;;;;;;;5066833;28;20029;-59
2022/06/07 12:17:01;;;;;;;2.67;1.30;;;;;;;;;;5062632;28;20115;-59
2022/06/07 12:19:31;;;;;;;3.55;1.40;;;;;;;;;;5075095;28;20490;-60
2022/06/07 12:22:04;;;;;;;1.70;1.60;;;;;;;;;;5063503;28;20111;-60
2022/06/07 12:24:49;;;;;;;2.08;1.40;;;;;;;;;;5074636;28;20033;-60
2022/06/07 12:27:28;;;;;;;1.83;1.30;;;;;;;;;;5071540;28;20028;-60
2022/06/07 12:30:00;;;;;;;2.00;1.50;;;;;;;;;;5066464;28;20028;-60
2022/06/07 12:32:33;;;;;;;2.55;1.50;;;;;;;;;;5071979;28;20024;-60
2022/06/07 12:35:16;;;;;;;1.48;1.38;;;;;;;;;;5072843;28;20483;-60
2022/06/07 12:37:46;;;;;;;3.47;1.48;;;;;;;;;;5071495;28;20111;-60
2022/06/07 12:40:29;;;;;;;1.60;1.25;;;;;;;;;;5071918;28;20028;-60
2022/06/07 12:42:55;;;;;;;1.38;1.27;;;;;;;;;;5068556;28;20032;-60
2022/06/07 12:45:33;;;;;;;1.85;1.20;;;;;;;;;;5070295;28;20080;-60
2022/06/07 12:48:06;;;;;;;1.83;1.25;;;;;;;;;;5072093;28;20029;-60
2022/06/07 12:50:37;;;;;;;3.80;1.23;;;;;;;;;;5070062;28;20039;-60
2022/06/07 12:53:04;;;;;;;2.30;1.50;;;;;;;;;;5068271;28;20062;-60
2022/06/07 12:55:36;;;;;;;1.98;1.02;;;;;;;;;;5062449;28;20043;-60
2022/06/07 12:58:17;;;;;;;2.28;1.20;;;;;;;;;;5065726;28;20056;-60
2022/06/07 13:00:44;;;;;;;2.13;1.27;;;;;;;;;;5065130;28;20016;-60
2022/06/07 13:03:27;;;;;;;2.70;1.27;;;;;;;;;;5065590;28;20494;-60
2022/06/07 13:06:03;;;;;;;1.45;1.20;;;;;;;;;;5057947;28;20553;-60
2022/06/07 13:08:38;;;;;;;4.45;1.20;;;;;;;;;;5067211;28;20116;-59
2022/06/07 13:11:09;;;;;;;2.88;1.50;;;;;;;;;;5060500;28;20496;-60
2022/06/07 13:13:40;;;;;;;3.08;1.50;;;;;;;;;;5063176;28;20392;-60
2022/06/07 13:16:08;;;;;;;1.80;1.40;;;;;;;;;;5069820;28;20028;-59
2022/06/07 13:18:41;;;;;;;1.52;1.42;;;;;;;;;;5068624;28;20095;-60
2022/06/07 13:21:37;;;;;;;2.33;1.33;;;;;;;;;;5066006;28;20028;-61
2022/06/07 13:24:04;;;;;;;1.48;1.38;;;;;;;;;;5070466;28;20545;-60
2022/06/07 13:26:33;;;;;;;1.95;1.27;;;;;;;;;;5072018;28;20108;-60
2022/06/07 13:29:21;;;;;;;1.40;1.27;;;;;;;;;;5072749;28;20031;-59
2022/06/07 13:31:49;;;;;;;1.58;1.25;;;;;;;;;;5071008;28;20024;-60
2022/06/07 13:34:22;;;;;;;2.25;1.20;;;;;;;;;;5067560;28;20431;-60
2022/06/07 13:37:14;;;;;;;3.08;1.30;;;;;;;;;;5070800;28;20054;-60
2022/06/07 13:39:39;;;;;;;1.60;1.20;;;;;;;;;;5070713;28;20032;-61
2022/06/07 13:42:13;;;;;;;2.47;1.30;;;;;;;;;;5069808;28;20032;-60
2022/06/07 13:44:44;;;;;;;2.10;1.50;;;;;;;;;;5068081;28;20044;-60
2022/06/07 13:47:28;;;;;;;1.70;1.50;;;;;;;;;;5069512;28;20054;-60
2022/06/07 13:53:22;;;;;;;1.98;1.40;;;;;;;;;;5067452;28;20084;-59
2022/06/07 13:55:55;;;;;;;2.10;1.52;;;;;;;;;;5067919;28;20024;-60
2022/06/07 13:58:23;;;;;;;2.40;1.50;;;;;;;;;;5063312;28;20025;-60
2022/06/07 14:00:51;;;;;;;1.80;1.60;;;;;;;;;;5065827;28;20024;-60
2022/06/07 14:03:29;;;;;;;2.15;1.95;;;;;;;;;;5064662;28;20460;-59
2022/06/07 14:05:54;;;;;;;2.63;1.52;;;;;;;;;;5062339;28;20119;-60
2022/06/07 14:08:21;;;;;;;4.28;2.20;;;;;;;;;;5061860;28;20108;-60
2022/06/07 14:10:47;;;;;;;2.60;1.90;;;;;;;;;;5061529;28;20039;-61
2022/06/07 14:13:13;;;;;;;2.33;1.80;;;;;;;;;;5065718;28;20021;-60
2022/06/07 14:15:40;;;;;;;2.58;2.00;;;;;;;;;;5069857;28;20261;-60
2022/06/07 14:18:08;;;;;;;2.03;1.83;;;;;;;;;;5062989;28;20040;-60
2022/06/07 14:20:37;;;;;;;2.08;1.70;;;;;;;;;;5064048;28;20016;-60
2022/06/07 14:23:02;;;;;;;5.53;3.67;;;;;;;;;;5068644;28;20430;-60
2022/06/07 14:25:28;;;;;;;3.70;2.25;;;;;;;;;;5074104;28;20031;-60
2022/06/07 14:27:54;;;;;;;2.20;1.92;;;;;;;;;;5071971;28;20020;-60
2022/06/07 14:30:21;;;;;;;3.67;2.00;;;;;;;;;;5071108;28;20025;-60
2022/06/07 14:32:51;;;;;;;2.67;1.73;;;;;;;;;;5068017;28;20032;-59
2022/06/07 14:35:18;;;;;;;2.40;1.63;;;;;;;;;;5069882;28;20463;-59
2022/06/07 14:37:44;;;;;;;1.90;1.80;;;;;;;;;;5068729;28;20104;-60
2022/06/07 14:40:15;;;;;;;3.33;1.50;;;;;;;;;;5069886;28;20119;-60
2022/06/07 14:42:42;;;;;;;2.88;1.70;;;;;;;;;;5070169;28;20452;-60
2022/06/07 14:45:09;;;;;;;2.65;1.55;;;;;;;;;;5068846;28;20077;-60
2022/06/07 14:47:35;;;;;;;4.28;1.20;;;;;;;;;;5067240;28;20500;-59
2022/06/07 14:50:00;;;;;;;1.83;1.40;;;;;;;;;;5068981;28;20115;-60
2022/06/07 14:52:26;;;;;;;2.17;1.67;;;;;;;;;;5066651;28;20036;-60
2022/06/07 14:54:51;;;;;;;2.35;1.80;;;;;;;;;;5064101;28;20017;-60
2022/06/07 14:57:29;;;;;;;1.48;1.38;;;;;;;;;;5063871;28;20020;-60
2022/06/07 15:00:01;;;;;;;2.13;1.60;;;;;;;;;;5065570;28;20024;-60
2022/06/07 15:02:32;;;;;;;4.50;1.50;;;;;;;;;;5063878;28;20418;-61
2022/06/07 15:05:02;;;;;;;1.38;1.20;;;;;;;;;;5067091;28;20112;-60
2022/06/07 15:07:31;;;;;;;2.75;1.38;;;;;;;;;;5063005;28;20056;-59
2022/06/07 15:09:57;;;;;;;;;;;;;;;;;;5068643;28;20028;-60
2022/06/07 15:12:25;;;;;;;1.65;1.50;;;;;;;;;;5069326;28;19978;-60
2022/06/07 15:14:51;;;;;;;1.40;1.30;;;;;;;;;;5068252;28;20049;-60
2022/06/07 15:17:25;;;;;;;2.20;1.65;;;;;;;;;;5069481;28;20051;-60
2022/06/07 15:19:51;;;;;;;1.65;1.55;;;;;;;;;;5062004;28;20034;-60
2022/06/07 15:22:17;;;;;;;1.83;1.23;;;;;;;;;;5077292;28;20028;-60
2022/06/07 15:24:43;;;;;;;1.30;1.20;;;;;;;;;;5074650;28;20078;-60
2022/06/07 15:27:09;;;;;;;2.22;1.20;;;;;;;;;;5075195;28;20031;-60